createdAt,value
2019-04-14T00:02:35.843Z,5.50
2019-04-14T00:05:08.261Z,5.50
2019-04-14T00:07:40.685Z,5.40
2019-04-14T00:10:11.467Z,5.40
2019-04-14T00:12:44.868Z,5.40
2019-04-14T00:15:25.167Z,5.40
2019-04-14T00:17:46.407Z,5.40
2019-04-14T00:20:16.403Z,5.40
2019-04-14T00:22:46.831Z,5.40
2019-04-14T00:25:17.402Z,5.40
2019-04-14T00:27:47.576Z,5.30
2019-04-14T00:30:18.815Z,5.40
2019-04-14T00:32:57.544Z,5.40
2019-04-14T00:35:44.947Z,5.40
2019-04-14T00:38:30.235Z,5.30
2019-04-14T00:41:09.316Z,5.30
2019-04-14T00:43:44.109Z,5.30
2019-04-14T00:46:21.167Z,5.30
2019-04-14T00:48:53.940Z,5.30
2019-04-14T00:51:24.435Z,5.30
2019-04-14T00:53:54.199Z,5.30
2019-04-14T00:56:23.833Z,5.20
2019-04-14T00:58:53.927Z,5.30
2019-04-14T01:01:22.259Z,5.20
2019-04-14T01:03:52.636Z,5.20
2019-04-14T01:06:22.942Z,5.20
2019-04-14T01:08:53.350Z,5.20
2019-04-14T01:11:22.902Z,5.20
2019-04-14T01:13:52.990Z,5.20
2019-04-14T01:16:23.759Z,5.20
2019-04-14T01:18:53.753Z,5.20
2019-04-14T01:21:24.219Z,5.20
2019-04-14T01:23:54.527Z,5.20
2019-04-14T01:26:23.045Z,5.10
2019-04-14T01:28:52.614Z,5.20
2019-04-14T01:31:23.082Z,5.10
2019-04-14T01:33:53.370Z,5.10
2019-04-14T01:36:23.467Z,5.10
2019-04-14T01:38:55.808Z,5.10
2019-04-14T01:41:26.052Z,5.10
2019-04-14T01:43:56.068Z,5.10
2019-04-14T01:46:28.349Z,5.10
2019-04-14T01:48:56.536Z,5.00
2019-04-14T01:51:41.722Z,5.10
2019-04-14T01:54:43.055Z,5.00
2019-04-14T01:57:37.650Z,5.00
2019-04-14T02:00:46.579Z,5.00
2019-04-14T02:03:17.041Z,5.00
2019-04-14T02:05:47.465Z,5.00
2019-04-14T02:08:17.739Z,5.00
2019-04-14T02:10:46.097Z,4.90
2019-04-14T02:13:15.727Z,4.90
2019-04-14T02:15:48.530Z,4.90
2019-04-14T02:18:18.596Z,4.90
2019-04-14T02:20:49.073Z,4.90
2019-04-14T02:23:19.265Z,4.80
2019-04-14T02:25:49.374Z,4.80
2019-04-14T02:28:19.907Z,4.80
2019-04-14T02:31:00.233Z,4.80
2019-04-14T02:33:46.609Z,4.70
2019-04-14T02:36:27.384Z,4.70
2019-04-14T02:38:57.199Z,4.70
2019-04-14T02:46:26.334Z,4.60
2019-04-14T02:48:58.441Z,4.60
2019-04-14T03:04:01.860Z,4.40
2019-04-14T03:06:26.110Z,4.40
2019-04-14T03:11:31.375Z,4.40
2019-04-14T03:17:05.879Z,4.40
2019-04-14T03:19:46.203Z,4.40
2019-04-14T03:22:28.811Z,4.30
2019-04-14T03:25:02.740Z,4.30
2019-04-14T03:27:55.154Z,4.30
2019-04-14T03:33:18.459Z,4.20
2019-04-14T03:36:05.364Z,4.20
2019-04-14T03:37:59.490Z,4.20
2019-04-14T03:40:34.048Z,4.20
2019-04-14T03:43:30.844Z,4.20
2019-04-14T03:45:54.766Z,4.20
2019-04-14T03:48:33.800Z,4.10
2019-04-14T03:50:39.343Z,4.10
2019-04-14T03:55:55.370Z,4.10
2019-04-14T03:58:22.603Z,4.10
2019-04-14T04:00:53.217Z,4.10
2019-04-14T04:03:23.833Z,4.10
2019-04-14T04:05:54.482Z,4.10
2019-04-14T04:08:24.444Z,4.00
2019-04-14T04:10:55.335Z,4.10
2019-04-14T04:13:25.912Z,4.10
2019-04-14T04:16:18.686Z,4.10
2019-04-14T04:18:58.832Z,4.10
2019-04-14T04:21:57.379Z,4.10
2019-04-14T04:24:52.357Z,4.10
2019-04-14T04:27:46.911Z,4.10
2019-04-14T04:30:25.459Z,4.10
2019-04-14T04:33:24.293Z,4.00
2019-04-14T04:35:59.299Z,4.00
2019-04-14T04:38:42.046Z,4.00
2019-04-14T04:41:12.455Z,4.00
2019-04-14T04:43:42.791Z,4.00
2019-04-14T04:46:13.418Z,4.00
2019-04-14T04:48:43.727Z,4.00
2019-04-14T04:51:13.946Z,3.90
2019-04-14T04:53:42.424Z,3.90
2019-04-14T04:56:12.217Z,3.90
2019-04-14T04:58:41.867Z,3.90
2019-04-14T05:01:12.196Z,3.90
2019-04-14T05:03:42.802Z,3.90
2019-04-14T05:07:08.050Z,3.90
2019-04-14T05:10:15.379Z,3.90
2019-04-14T05:12:50.780Z,3.90
2019-04-14T05:15:40.294Z,3.90
2019-04-14T05:18:15.550Z,3.90
2019-04-14T05:20:46.296Z,3.90
2019-04-14T05:23:16.865Z,3.90
2019-04-14T05:25:47.383Z,3.90
2019-04-14T05:28:17.813Z,3.90
2019-04-14T05:30:48.284Z,3.90
2019-04-14T05:33:18.530Z,3.90
2019-04-14T05:35:48.848Z,3.90
2019-04-14T05:38:19.040Z,3.90
2019-04-14T05:40:49.564Z,3.90
2019-04-14T05:43:30.281Z,3.90
2019-04-14T05:45:52.228Z,3.90
2019-04-14T05:48:22.765Z,3.90
2019-04-14T05:50:53.326Z,3.90
2019-04-14T05:53:23.954Z,3.90
2019-04-14T05:55:54.549Z,3.90
2019-04-14T05:58:23.923Z,3.90
2019-04-14T06:00:53.364Z,3.90
2019-04-14T06:03:23.478Z,3.90
2019-04-14T06:05:52.881Z,3.90
2019-04-14T06:08:22.366Z,3.90
2019-04-14T06:10:51.722Z,3.90
2019-04-14T06:13:21.108Z,3.90
2019-04-14T06:15:50.627Z,3.90
2019-04-14T06:18:19.878Z,3.90
2019-04-14T06:20:49.208Z,3.80
2019-04-14T06:23:18.412Z,3.80
2019-04-14T06:25:47.776Z,3.80
2019-04-14T06:28:17.144Z,3.80
2019-04-14T06:30:56.191Z,3.80
2019-04-14T06:33:40.646Z,3.80
2019-04-14T06:36:27.974Z,3.80
2019-04-14T06:39:16.428Z,3.80
2019-04-14T06:41:46.046Z,3.80
2019-04-14T06:44:15.512Z,3.80
2019-04-14T06:46:44.830Z,3.80
2019-04-14T06:49:14.302Z,3.80
2019-04-14T06:51:43.667Z,3.80
2019-04-14T06:54:12.960Z,3.80
2019-04-14T06:56:42.386Z,3.70
2019-04-14T06:59:11.786Z,3.70
2019-04-14T07:01:43.603Z,3.80
2019-04-14T07:04:12.904Z,3.80
2019-04-14T07:06:42.504Z,3.80
2019-04-14T07:09:11.879Z,3.80
2019-04-14T07:11:41.178Z,3.80
2019-04-14T07:14:10.511Z,3.80
2019-04-14T07:16:39.739Z,3.80
2019-04-14T07:19:09.023Z,3.90
2019-04-14T07:21:38.661Z,3.90
2019-04-14T07:24:11.090Z,3.90
2019-04-14T07:26:40.567Z,3.90
2019-04-14T07:29:10.203Z,3.90
2019-04-14T07:32:13.937Z,3.90
2019-04-14T07:34:57.113Z,3.90
2019-04-14T07:37:44.753Z,3.90
2019-04-14T07:40:33.071Z,3.90
2019-04-14T07:43:10.930Z,3.90
2019-04-14T07:45:57.974Z,3.90
2019-04-14T07:48:31.545Z,4.00
2019-04-14T07:51:30.353Z,4.00
2019-04-14T07:54:33.978Z,4.00
2019-04-14T07:57:22.254Z,4.00
2019-04-14T08:00:06.754Z,4.00
2019-04-14T08:02:43.594Z,4.10
2019-04-14T08:05:21.840Z,4.10
2019-04-14T08:07:51.755Z,4.10
2019-04-14T08:10:22.937Z,4.20
2019-04-14T08:12:52.377Z,4.20
2019-04-14T08:15:21.718Z,4.20
2019-04-14T08:17:51.022Z,4.30
2019-04-14T08:20:27.237Z,4.30
2019-04-14T08:22:53.362Z,4.30
2019-04-14T08:25:22.816Z,4.40
2019-04-14T08:27:52.277Z,4.40
2019-04-14T08:30:21.957Z,4.50
2019-04-14T08:32:51.559Z,4.50
2019-04-14T08:35:20.863Z,4.50
2019-04-14T08:37:50.208Z,4.60
2019-04-14T08:40:22.429Z,4.60
2019-04-14T08:43:16.914Z,4.70
2019-04-14T08:45:51.469Z,4.70
2019-04-14T08:48:38.854Z,4.80
2019-04-14T08:51:14.494Z,4.80
2019-04-14T08:53:47.924Z,4.90
2019-04-14T08:56:34.547Z,5.00
2019-04-14T08:59:13.288Z,5.00
2019-04-14T09:02:01.636Z,5.10
2019-04-14T09:04:50.058Z,5.10
2019-04-14T09:07:31.982Z,5.20
2019-04-14T09:10:08.027Z,5.20
2019-04-14T09:12:39.670Z,5.20
2019-04-14T09:15:09.567Z,5.30
2019-04-14T09:17:38.926Z,5.30
2019-04-14T09:20:08.835Z,5.40
2019-04-14T09:22:38.691Z,5.40
2019-04-14T09:25:08.152Z,5.50
2019-04-14T09:27:37.657Z,5.50
2019-04-14T09:30:08.957Z,5.60
2019-04-14T09:32:38.931Z,5.60
2019-04-14T09:35:08.167Z,5.60
2019-04-14T09:37:37.371Z,5.70
2019-04-14T09:40:06.840Z,5.70
2019-04-14T09:42:36.477Z,5.80
2019-04-14T09:45:06.512Z,5.80
2019-04-14T09:47:35.890Z,5.80
2019-04-14T09:50:06.028Z,5.90
2019-04-14T09:52:35.533Z,5.90
2019-04-14T09:55:05.387Z,5.90
2019-04-14T09:57:34.774Z,5.90
2019-04-14T10:00:07.471Z,5.90
2019-04-14T10:02:37.108Z,6.00
2019-04-14T10:05:06.640Z,5.90
2019-04-14T10:07:36.004Z,6.00
2019-04-14T10:10:05.622Z,6.00
2019-04-14T10:12:35.306Z,6.00
2019-04-14T10:15:05.035Z,6.00
2019-04-14T10:17:34.450Z,6.00
2019-04-14T10:20:04.186Z,6.00
2019-04-14T10:22:34.484Z,6.00
2019-04-14T10:25:04.140Z,6.00
2019-04-14T10:27:33.540Z,6.00
2019-04-14T10:30:03.224Z,6.00
2019-04-14T10:32:32.711Z,6.10
2019-04-14T10:35:07.669Z,6.10
2019-04-14T10:37:37.142Z,6.10
2019-04-14T10:40:07.724Z,6.10
2019-04-14T10:42:37.133Z,6.10
2019-04-14T10:45:11.719Z,6.20
2019-04-14T10:47:42.051Z,6.20
2019-04-14T10:50:11.288Z,6.20
2019-04-14T10:52:41.906Z,6.20
2019-04-14T10:55:11.951Z,6.20
2019-04-14T10:57:41.382Z,6.30
2019-04-14T11:00:13.994Z,6.30
2019-04-14T11:02:46.632Z,6.30
2019-04-14T11:05:18.482Z,6.30
2019-04-14T11:07:48.124Z,6.40
2019-04-14T11:10:17.895Z,6.40
2019-04-14T11:12:49.686Z,6.40
2019-04-14T11:15:19.043Z,6.50
2019-04-14T11:17:48.360Z,6.50
2019-04-14T11:20:17.998Z,6.50
2019-04-14T11:22:47.654Z,6.50
2019-04-14T11:25:30.762Z,6.60
2019-04-14T11:28:05.320Z,6.60
2019-04-14T11:30:35.234Z,6.60
2019-04-14T11:33:13.820Z,6.80
2019-04-14T11:36:20.465Z,6.90
2019-04-14T11:39:04.753Z,6.90
2019-04-14T11:41:55.207Z,7.00
2019-04-14T11:44:28.795Z,7.10
2019-04-14T11:46:58.259Z,7.10
2019-04-14T11:49:27.699Z,7.20
2019-04-14T11:51:57.217Z,7.20
2019-04-14T11:54:26.611Z,7.20
2019-04-14T11:56:55.972Z,7.30
2019-04-14T11:59:47.466Z,7.40
2019-04-14T12:02:22.312Z,7.40
2019-04-14T12:05:02.205Z,7.50
2019-04-14T12:07:46.500Z,7.60
2019-04-14T12:10:20.748Z,7.60
2019-04-14T12:12:50.363Z,7.70
2019-04-14T12:15:20.295Z,7.70
2019-04-14T12:17:49.832Z,7.80
2019-04-14T12:20:19.506Z,7.90
2019-04-14T12:22:48.938Z,7.90
2019-04-14T12:25:19.542Z,7.90
2019-04-14T12:27:51.820Z,8.00
2019-04-14T12:30:22.401Z,8.10
2019-04-14T12:32:52.034Z,8.20
2019-04-14T12:35:21.784Z,8.20
2019-04-14T12:37:51.396Z,8.30
2019-04-14T12:40:22.086Z,8.30
2019-04-14T12:42:59.307Z,8.40
2019-04-14T12:45:54.729Z,8.40
2019-04-14T12:48:59.981Z,8.40
2019-04-14T12:51:34.930Z,8.50
2019-04-14T12:54:04.431Z,8.50
2019-04-14T12:56:35.331Z,8.50
2019-04-14T12:59:23.832Z,8.50
2019-04-14T13:02:11.430Z,8.60
2019-04-14T13:04:41.116Z,8.60
2019-04-14T13:07:10.612Z,8.80
2019-04-14T13:09:42.238Z,8.90
2019-04-14T13:12:12.302Z,9.20
2019-04-14T13:14:45.584Z,9.40
2019-04-14T13:17:16.265Z,9.50
2019-04-14T13:19:45.892Z,9.60
2019-04-14T13:22:15.864Z,9.70
2019-04-14T13:24:48.249Z,9.80
2019-04-14T13:27:18.708Z,9.80
2019-04-14T13:29:58.433Z,9.90
2019-04-14T13:32:35.730Z,10.00
2019-04-14T13:34:59.056Z,10.00
2019-04-14T13:37:28.887Z,10.10
2019-04-14T13:39:58.522Z,10.20
2019-04-14T13:42:28.081Z,10.30
2019-04-14T13:45:01.794Z,10.30
2019-04-14T13:47:31.284Z,10.40
2019-04-14T13:50:01.202Z,10.40
2019-04-14T13:52:45.754Z,10.50
2019-04-14T13:55:04.747Z,10.70
2019-04-14T13:57:34.163Z,11.00
2019-04-14T14:00:06.883Z,11.20
2019-04-14T14:02:36.074Z,11.30
2019-04-14T14:05:05.615Z,11.10
2019-04-14T14:07:39.426Z,11.00
2019-04-14T14:10:10.363Z,10.90
2019-04-14T14:13:08.709Z,10.80
2019-04-14T14:16:08.673Z,10.90
2019-04-14T14:18:47.663Z,11.00
2019-04-14T14:21:36.957Z,11.60
2019-04-14T14:24:26.026Z,11.90
2019-04-14T14:26:55.832Z,11.80
2019-04-14T14:29:26.305Z,11.50
2019-04-14T14:31:57.248Z,11.50
2019-04-14T14:34:26.806Z,11.50
2019-04-14T14:36:56.991Z,11.40
2019-04-14T14:39:25.529Z,11.40
2019-04-14T14:41:55.641Z,11.30
2019-04-14T14:44:33.786Z,11.30
2019-04-14T14:47:28.961Z,11.30
2019-04-14T14:50:20.544Z,11.20
2019-04-14T14:52:51.573Z,11.10
2019-04-14T14:55:22.257Z,11.10
2019-04-14T14:57:53.048Z,11.30
2019-04-14T15:00:34.974Z,11.50
2019-04-14T15:03:05.162Z,11.80
2019-04-14T15:05:37.347Z,12.00
2019-04-14T15:08:09.817Z,12.10
2019-04-14T15:10:39.857Z,12.10
2019-04-14T15:13:10.782Z,12.10
2019-04-14T15:15:40.680Z,12.20
2019-04-14T15:18:13.118Z,12.40
2019-04-14T15:20:42.562Z,12.50
2019-04-14T15:23:24.012Z,12.30
2019-04-14T15:25:43.003Z,12.20
2019-04-14T15:28:15.584Z,12.10
2019-04-14T15:30:43.529Z,12.00
2019-04-14T15:33:12.765Z,11.90
2019-04-14T15:35:41.968Z,11.90
2019-04-14T15:38:11.235Z,11.80
2019-04-14T15:40:40.412Z,11.80
2019-04-14T15:43:09.678Z,11.70
2019-04-14T15:45:39.007Z,11.70
2019-04-14T15:48:08.912Z,11.70
2019-04-14T15:50:38.602Z,11.60
2019-04-14T15:53:07.962Z,11.50
2019-04-14T15:55:38.720Z,11.40
2019-04-14T15:58:47.927Z,11.40
2019-04-14T16:01:26.628Z,11.40
2019-04-14T16:04:15.082Z,11.40
2019-04-14T16:07:03.552Z,11.40
2019-04-14T16:10:06.971Z,11.40
2019-04-14T16:12:54.248Z,11.40
2019-04-14T16:15:55.022Z,11.40
2019-04-14T16:18:41.955Z,11.40
2019-04-14T16:21:11.345Z,11.40
2019-04-14T16:23:50.064Z,11.30
2019-04-14T16:26:29.498Z,11.30
2019-04-14T16:29:20.490Z,11.30
2019-04-14T16:32:06.887Z,11.30
2019-04-14T16:34:54.258Z,11.10
2019-04-14T16:37:23.612Z,11.10
2019-04-14T16:39:52.708Z,11.10
2019-04-14T16:42:22.081Z,11.10
2019-04-14T16:44:51.584Z,11.00
2019-04-14T16:47:20.801Z,11.00
2019-04-14T16:49:50.116Z,11.00
2019-04-14T16:52:41.557Z,10.90
2019-04-14T16:55:21.392Z,10.90
2019-04-14T16:58:04.019Z,10.90
2019-04-14T17:00:38.935Z,10.90
2019-04-14T17:03:07.984Z,10.80
2019-04-14T17:05:39.037Z,10.80
2019-04-14T17:08:08.214Z,10.80
2019-04-14T17:10:37.397Z,10.70
2019-04-14T17:13:07.152Z,10.70
2019-04-14T17:15:57.031Z,10.70
2019-04-14T17:18:46.801Z,10.60
2019-04-14T17:21:34.027Z,10.60
2019-04-14T17:24:28.340Z,10.60
2019-04-14T17:27:01.803Z,10.60
2019-04-14T17:29:43.208Z,10.50
2019-04-14T17:32:34.173Z,10.50
2019-04-14T17:35:22.579Z,10.50
2019-04-14T17:38:15.304Z,10.50
2019-04-14T17:40:56.642Z,10.40
2019-04-14T17:43:47.748Z,10.40
2019-04-14T17:46:35.960Z,10.40
2019-04-14T17:49:31.209Z,10.30
2019-04-14T17:52:18.523Z,10.30
2019-04-14T17:55:06.993Z,10.30
2019-04-14T17:57:54.090Z,10.20
2019-04-14T18:00:41.090Z,10.20
2019-04-14T18:03:30.904Z,10.20
2019-04-14T18:06:21.832Z,10.20
2019-04-14T18:09:11.206Z,10.20
2019-04-14T18:12:02.782Z,10.10
2019-04-14T18:14:51.017Z,10.20
2019-04-14T18:17:27.867Z,10.20
2019-04-14T18:20:09.473Z,10.10
2019-04-14T18:22:39.098Z,10.10
2019-04-14T18:25:09.543Z,10.00
2019-04-14T18:27:58.304Z,10.00
2019-04-14T18:30:32.224Z,9.90
2019-04-14T18:33:20.365Z,9.90
2019-04-14T18:35:54.173Z,9.80
2019-04-14T18:38:36.562Z,9.70
2019-04-14T18:41:13.013Z,9.70
2019-04-14T18:43:53.666Z,9.60
2019-04-14T18:46:54.511Z,9.60
2019-04-14T18:49:58.140Z,9.50
2019-04-14T18:53:04.709Z,9.50
2019-04-14T18:55:58.702Z,9.50
2019-04-14T18:58:59.189Z,9.40
2019-04-14T19:01:32.323Z,9.40
2019-04-14T19:04:02.459Z,9.40
2019-04-14T19:06:30.807Z,9.40
2019-04-14T19:09:00.237Z,9.30
2019-04-14T19:11:39.726Z,9.30
2019-04-14T19:14:09.925Z,9.30
2019-04-14T19:16:41.314Z,9.20
2019-04-14T19:19:10.692Z,9.20
2019-04-14T19:21:39.924Z,9.20
2019-04-14T19:24:09.529Z,9.10
2019-04-14T19:26:38.869Z,9.10
2019-04-14T19:29:08.334Z,9.10
2019-04-14T19:31:37.649Z,9.00
2019-04-14T19:34:07.154Z,9.00
2019-04-14T19:36:38.891Z,9.00
2019-04-14T19:39:10.677Z,8.90
2019-04-14T19:41:40.164Z,8.90
2019-04-14T19:44:09.598Z,8.90
2019-04-14T19:46:38.784Z,8.80
2019-04-14T19:49:08.837Z,8.70
2019-04-14T19:51:38.190Z,8.70
2019-04-14T19:54:07.434Z,8.70
2019-04-14T19:56:39.435Z,8.60
2019-04-14T19:59:08.643Z,8.60
2019-04-14T20:01:37.890Z,8.60
2019-04-14T20:04:07.115Z,8.50
2019-04-14T20:06:36.395Z,8.50
2019-04-14T20:09:07.348Z,8.50
2019-04-14T20:11:36.717Z,8.40
2019-04-14T20:14:06.011Z,8.40
2019-04-14T20:16:55.031Z,8.30
2019-04-14T20:19:58.564Z,8.30
2019-04-14T20:22:45.812Z,8.30
2019-04-14T20:25:34.109Z,8.20
2019-04-14T20:28:07.563Z,8.10
2019-04-14T20:30:55.904Z,8.10
2019-04-14T20:33:25.207Z,8.10
2019-04-14T20:35:54.642Z,8.00
2019-04-14T20:38:23.990Z,8.00
2019-04-14T20:40:53.517Z,7.90
2019-04-14T20:43:22.888Z,7.90
2019-04-14T20:45:52.302Z,7.90
2019-04-14T20:48:21.478Z,7.80
2019-04-14T20:50:50.828Z,7.80
2019-04-14T20:53:20.127Z,7.80
2019-04-14T20:55:49.669Z,7.70
2019-04-14T20:58:19.019Z,7.70
2019-04-14T21:00:48.314Z,7.60
2019-04-14T21:03:48.883Z,7.60
2019-04-14T21:06:27.134Z,7.60
2019-04-14T21:09:11.309Z,7.50
2019-04-14T21:11:47.232Z,7.50
2019-04-14T21:14:23.807Z,7.50
2019-04-14T21:17:10.287Z,7.50
2019-04-14T21:19:53.762Z,7.40
2019-04-14T21:22:51.077Z,7.40
2019-04-14T21:25:45.428Z,7.40
2019-04-14T21:28:23.396Z,7.40
2019-04-14T21:31:11.772Z,7.40
2019-04-14T21:34:01.923Z,7.40
2019-04-14T21:36:56.060Z,7.30
2019-04-14T21:39:40.614Z,7.30
2019-04-14T21:42:09.773Z,7.30
2019-04-14T21:44:39.367Z,7.30
2019-04-14T21:47:08.639Z,7.30
2019-04-14T21:49:38.015Z,7.20
2019-04-14T21:52:29.378Z,7.20
2019-04-14T21:55:01.472Z,7.20
2019-04-14T21:57:47.312Z,7.20
2019-04-14T22:00:34.655Z,7.10
2019-04-14T22:03:22.028Z,7.10
2019-04-14T22:05:58.400Z,7.10
2019-04-14T22:08:30.973Z,7.10
2019-04-14T22:11:06.956Z,7.00
2019-04-14T22:13:36.187Z,7.00
2019-04-14T22:16:05.674Z,7.00
2019-04-14T22:18:34.901Z,6.90
2019-04-14T22:21:04.561Z,6.90
2019-04-14T22:23:33.835Z,6.90
2019-04-14T22:26:03.065Z,6.90
2019-04-14T22:28:32.468Z,6.80
2019-04-14T22:31:01.730Z,6.80
2019-04-14T22:33:31.172Z,6.80
2019-04-14T22:36:01.696Z,6.70
2019-04-14T22:38:31.241Z,6.70
2019-04-14T22:41:00.909Z,6.70
2019-04-14T22:43:30.322Z,6.60
2019-04-14T22:45:59.612Z,6.60
2019-04-14T22:48:28.947Z,6.60
2019-04-14T22:50:58.403Z,6.60
2019-04-14T22:53:27.726Z,6.50
2019-04-14T22:55:57.142Z,6.50
2019-04-14T22:58:26.612Z,6.50
2019-04-14T23:01:04.447Z,6.50
2019-04-14T23:04:02.321Z,6.40
2019-04-14T23:06:53.715Z,6.40
2019-04-14T23:09:37.787Z,6.30
2019-04-14T23:12:28.928Z,6.30
2019-04-14T23:15:13.708Z,6.30
2019-04-14T23:18:13.832Z,6.30
2019-04-14T23:21:02.285Z,6.20
2019-04-14T23:23:50.420Z,6.20
2019-04-14T23:26:19.808Z,6.10
2019-04-14T23:28:49.257Z,6.10
2019-04-14T23:31:18.790Z,6.10
2019-04-14T23:33:50.987Z,6.10
2019-04-14T23:36:20.244Z,6.00
2019-04-14T23:38:49.453Z,6.00
2019-04-14T23:41:18.805Z,6.00
2019-04-14T23:43:48.152Z,5.90
2019-04-14T23:46:17.506Z,5.90
2019-04-14T23:48:46.674Z,5.80
2019-04-14T23:51:18.945Z,5.80
2019-04-14T23:53:48.302Z,5.80
2019-04-14T23:56:17.626Z,5.80
2019-04-14T23:58:46.878Z,5.70
